Owosso, MI

5:20 AM EDT on September 24, 2017 (GMT -0400)
Owosso

Weather History for KRNP - December, 2013

Change the Weather History Date:

Thursday, December 5, 2013

  Actual Average (KFNT) Record (KFNT)
Temperature  
Mean Temperature 44 °F -  
Max Temperature 59 °F 38 °F 70 °F (2001)
Min Temperature 28 °F 26 °F 6 °F (1991)
Degree Days  
Heating Degree Days 21    
Moisture  
Dew Point 32 °F    
Average Humidity 72    
Maximum Humidity 90    
Minimum Humidity 59    
Precipitation  
Precipitation 0.00 in - - ()
Sea Level Pressure  
Sea Level Pressure 29.84 in    
Wind  
Wind Speed 12 mph (WSW)    
Max Wind Speed 26 mph    
Max Gust Speed 34 mph    
Visibility 10 miles    
Events Rain    
Averages and records for this station are not official NWS values.
T = Trace of Precipitation, MM = Missing Value Source: NWS Daily Summary

Daily Weather History Graph

Daily Weather History Graph

Search for Another Location

Airport or City:

Trip Planner

Search our weather history database for the weather conditions in past years. The results will help you decide how hot, cold, wet, or windy it might be!

Date:

Astronomy

Dec. 05, 2013 Rise Set
Actual Time 7:52 AM EST 5:02 PM EST
Civil Twilight 7:20 AM EST 5:34 PM EST
Nautical Twilight 6:44 AM EST 6:09 PM EST
Astronomical Twilight 6:10 AM EST 6:43 PM EST
Moon 10:09 AM EST (12/5) 8:24 PM EST (12/5)
Length of Visible Light 10h 13m
Length of Day
9h 09m
Waxing Crescent, 10% of the Moon is Illuminated
Dec 5
Waxing Crescent
Dec 9
First Quarter
Dec 17
Full
Dec 25
Last Quarter
Jan 1
New

Hourly Weather History & Observations

Time (EST) Temp. Windchill Dew Point Humidity Pressure Visibility Wind Dir Wind Speed Gust Speed Precip Events Conditions
12:15 AM 58.6 °F - 55.4 °F 89% 29.58 in 7.0 mi WSW 8.1 mph - N/A   Overcast
12:35 AM 58.1 °F - 55.2 °F 90% 29.57 in 7.0 mi South 6.9 mph - N/A   Overcast
12:54 AM 58.1 °F - 55.0 °F 90% 29.56 in 7.0 mi SSW 8.1 mph - N/A   Mostly Cloudy
1:15 AM 58.8 °F - 54.5 °F 86% 29.57 in 10.0 mi SSW 6.9 mph - N/A   Scattered Clouds
1:35 AM 59.0 °F - 54.1 °F 84% 29.57 in 10.0 mi SSW 8.1 mph - N/A   Mostly Cloudy
1:54 AM 58.8 °F - 53.8 °F 83% 29.57 in 10.0 mi SSW 6.9 mph - N/A   Overcast
2:15 AM 59.0 °F - 54.0 °F 83% 29.57 in 10.0 mi SW 9.2 mph - N/A   Overcast
2:35 AM 59.0 °F - 53.4 °F 82% 29.56 in 10.0 mi SSW 10.4 mph 17.3 mph N/A   Overcast
2:54 AM 59.0 °F - 52.7 °F 80% 29.57 in 10.0 mi SW 9.2 mph 16.1 mph N/A   Overcast
3:15 AM 58.6 °F - 52.5 °F 80% 29.58 in 10.0 mi SW 8.1 mph 16.1 mph N/A   Overcast
3:34 AM 58.3 °F - 52.5 °F 81% 29.59 in 10.0 mi WSW 10.4 mph 16.1 mph N/A Rain Rain
3:55 AM 53.2 °F - 47.5 °F 81% 29.61 in 7.0 mi WSW 18.4 mph 34.5 mph N/A   Overcast
4:14 AM 51.8 °F - 46.8 °F 83% 29.61 in 7.0 mi WSW 9.2 mph 21.9 mph N/A   Overcast
4:35 AM 51.1 °F - 46.8 °F 85% 29.62 in 7.0 mi SW 8.1 mph 16.1 mph N/A   Overcast
4:54 AM 51.3 °F - 47.3 °F 86% 29.63 in 7.0 mi WSW 10.4 mph - N/A   Overcast
5:15 AM 50.7 °F - 44.4 °F 79% 29.64 in 10.0 mi SW 13.8 mph - N/A   Overcast
5:35 AM 48.9 °F - 41.5 °F 76% 29.65 in 10.0 mi WSW 13.8 mph 25.3 mph N/A   Overcast
5:54 AM 47.3 °F - 39.2 °F 73% 29.68 in 10.0 mi WSW 16.1 mph 28.8 mph N/A   Overcast
6:15 AM 46.4 °F 39.2 °F 38.5 °F 74% 29.68 in 10.0 mi WSW 18.4 mph 26.5 mph N/A   Overcast
6:35 AM 45.5 °F 38.9 °F 37.2 °F 73% 29.71 in 10.0 mi WSW 15.0 mph 27.6 mph N/A   Overcast
6:54 AM 44.6 °F 36.1 °F 36.5 °F 73% 29.72 in 10.0 mi WSW 21.9 mph 29.9 mph N/A   Overcast
7:15 AM 43.7 °F 36.3 °F 36.1 °F 75% 29.73 in 10.0 mi WSW 16.1 mph 26.5 mph N/A   Overcast
7:35 AM 42.8 °F 35.1 °F 35.6 °F 76% 29.73 in 10.0 mi WSW 16.1 mph 23.0 mph N/A   Overcast
7:54 AM 41.9 °F 33.7 °F 35.6 °F 78% 29.74 in 10.0 mi WSW 17.3 mph 23.0 mph N/A   Overcast
8:15 AM 41.2 °F 33.7 °F 35.6 °F 81% 29.73 in 10.0 mi WSW 13.8 mph 20.7 mph N/A   Overcast
8:35 AM 40.6 °F 32.7 °F 35.1 °F 80% 29.75 in 10.0 mi WSW 15.0 mph 23.0 mph N/A   Overcast
8:55 AM 39.6 °F 31.3 °F 32.7 °F 76% 29.75 in 10.0 mi West 15.0 mph 23.0 mph N/A   Mostly Cloudy
9:15 AM 39.2 °F 29.8 °F 32.5 °F 77% 29.77 in 10.0 mi WSW 18.4 mph 24.2 mph N/A   Mostly Cloudy
9:34 AM 39.2 °F 30.2 °F 32.2 °F 76% 29.78 in 10.0 mi WSW 17.3 mph 26.5 mph N/A   Overcast
9:55 AM 38.7 °F 28.6 °F 31.3 °F 75% 29.81 in 10.0 mi WSW 20.7 mph 27.6 mph N/A   Overcast
10:15 AM 38.7 °F 30.1 °F 31.8 °F 76% 29.81 in 10.0 mi WSW 15.0 mph 26.5 mph N/A   Overcast
10:34 AM 38.7 °F 29.1 °F 30.6 °F 73% 29.83 in 10.0 mi West 18.4 mph 25.3 mph N/A   Overcast
10:55 AM 39.0 °F 29.3 °F 30.7 °F 72% 29.84 in 10.0 mi WSW 19.6 mph 26.5 mph N/A   Overcast
11:15 AM 39.4 °F 30.4 °F 30.2 °F 70% 29.84 in 10.0 mi West 17.3 mph 26.5 mph N/A   Mostly Cloudy
11:34 AM - - - N/A% - - North - - N/A   Unknown
11:55 AM 38.1 °F 29.1 °F 28.4 °F 68% 29.84 in - West 16.1 mph - N/A   Unknown
12:15 PM 37.6 °F 25.9 °F 27.5 °F 67% 29.85 in 10.0 mi WSW 26.5 mph 33.4 mph N/A   Unknown
12:35 PM 37.4 °F 27.5 °F 27.1 °F 66% 29.86 in 10.0 mi West 18.4 mph 29.9 mph N/A   Mostly Cloudy
12:55 PM 37.2 °F 27.3 °F 27.7 °F 68% 29.87 in 10.0 mi WSW 18.4 mph 32.2 mph N/A   Mostly Cloudy
1:15 PM 36.5 °F 26.7 °F 27.0 °F 68% 29.87 in 10.0 mi WSW 17.3 mph 27.6 mph N/A   Overcast
1:34 PM 36.7 °F 26.6 °F 23.7 °F 59% 29.87 in 10.0 mi West 18.4 mph 29.9 mph N/A   Mostly Cloudy
1:55 PM 37.2 °F 27.0 °F 24.3 °F 60% 29.88 in 10.0 mi WSW 19.6 mph 25.3 mph N/A   Mostly Cloudy
2:15 PM 36.9 °F 28.2 °F 23.7 °F 59% 29.89 in 10.0 mi WSW 13.8 mph 29.9 mph N/A   Mostly Cloudy
2:34 PM 35.2 °F 26.2 °F 24.1 °F 64% 29.89 in 10.0 mi WSW 13.8 mph 24.2 mph N/A   Scattered Clouds
2:55 PM 35.4 °F 25.3 °F 23.5 °F 62% 29.89 in 10.0 mi WSW 17.3 mph 23.0 mph N/A   Scattered Clouds
3:15 PM 34.9 °F 25.3 °F 23.0 °F 62% 29.91 in 10.0 mi WSW 15.0 mph 20.7 mph N/A   Scattered Clouds
3:35 PM 34.3 °F 24.6 °F 22.6 °F 62% 29.93 in 10.0 mi WSW 15.0 mph 20.7 mph N/A   Scattered Clouds
3:55 PM 33.8 °F 24.3 °F 22.5 °F 63% 29.94 in 10.0 mi WSW 13.8 mph 21.9 mph N/A   Scattered Clouds
4:15 PM 33.3 °F 22.8 °F 22.5 °F 65% 29.95 in 10.0 mi WSW 16.1 mph 25.3 mph N/A   Clear
4:35 PM 32.9 °F 22.4 °F 22.8 °F 66% 29.96 in 10.0 mi WSW 16.1 mph 19.6 mph N/A   Clear
4:55 PM 32.0 °F 22.1 °F 22.1 °F 67% 29.98 in 10.0 mi WSW 13.8 mph 17.3 mph N/A   Clear
5:15 PM 32.0 °F 21.6 °F 22.3 °F 67% 29.99 in 10.0 mi WSW 15.0 mph 18.4 mph N/A   Clear
5:35 PM 31.8 °F 21.0 °F 20.5 °F 63% 30.01 in 10.0 mi West 16.1 mph - N/A   Clear
5:55 PM 31.1 °F 22.4 °F 20.7 °F 65% 30.01 in 10.0 mi West 10.4 mph - N/A   Clear
6:15 PM 31.1 °F 20.9 °F 21.0 °F 66% 30.02 in 10.0 mi WSW 13.8 mph - N/A   Clear
6:35 PM 30.7 °F 20.9 °F 20.1 °F 65% 30.01 in 10.0 mi WSW 12.7 mph 19.6 mph N/A   Clear
6:55 PM 30.6 °F 19.4 °F 19.9 °F 65% 30.02 in 10.0 mi West 16.1 mph - N/A   Clear
7:15 PM 30.2 °F 21.3 °F 20.3 °F 67% 30.03 in 10.0 mi WSW 10.4 mph - N/A   Clear
7:35 PM 30.4 °F 22.2 °F 20.5 °F 67% 30.04 in 10.0 mi WSW 9.2 mph - N/A   Clear
7:54 PM 30.2 °F 21.9 °F 21.2 °F 69% 30.06 in 10.0 mi WSW 9.2 mph - N/A   Clear
8:15 PM 30.4 °F 21.5 °F 21.2 °F 69% 30.08 in 10.0 mi WSW 10.4 mph 16.1 mph N/A   Clear
8:35 PM 30.2 °F 20.8 °F 20.8 °F 68% 30.08 in 10.0 mi West 11.5 mph 16.1 mph N/A   Clear
8:54 PM 30.2 °F 22.6 °F 21.4 °F 70% 30.07 in 10.0 mi West 8.1 mph - N/A   Scattered Clouds
9:15 PM 29.8 °F 18.4 °F 20.3 °F 68% 30.06 in 10.0 mi West 16.1 mph - N/A   Scattered Clouds
9:35 PM 29.8 °F 19.8 °F 20.1 °F 67% 30.07 in 10.0 mi West 12.7 mph 21.9 mph N/A   Clear
9:55 PM 29.7 °F 19.1 °F 20.1 °F 68% 30.09 in 10.0 mi WSW 13.8 mph 18.4 mph N/A   Clear
10:15 PM 29.7 °F 20.1 °F 20.3 °F 68% 30.09 in 10.0 mi West 11.5 mph 17.3 mph N/A   Clear
10:35 PM 29.3 °F 19.6 °F 20.5 °F 70% 30.10 in 10.0 mi West 11.5 mph 16.1 mph N/A   Clear
10:55 PM 29.3 °F 19.6 °F 20.3 °F 69% 30.12 in 10.0 mi West 11.5 mph - N/A   Clear
11:15 PM 29.3 °F 19.1 °F 20.3 °F 69% 30.12 in 10.0 mi West 12.7 mph - N/A   Clear
11:35 PM 29.1 °F 19.4 °F 19.9 °F 69% 30.11 in 10.0 mi West 11.5 mph - N/A   Clear
11:55 PM 28.8 °F 19.0 °F 19.8 °F 69% 30.12 in 10.0 mi West 11.5 mph 17.3 mph N/A   Scattered Clouds